Time;durP1;ratioP1;P1;durP2;ratioP2;P2;SDS_P1;SDS_P2;PMS_P1;PMS_P2;Temp;Humidity;BMP_temperature;BMP_pressure;BME280_temperature;BME280_humidity;BME280_pressure;Samples;Min_cycle;Max_cycle;Signal;HPM_P1;HPM_P2
2023/11/03 00:01:10;;;;;;;;;2.33;0.00;;;;;12.78;100.00;98367.94;4937340;28;45866;-68
2023/11/03 00:03:36;;;;;;;;;0.00;0.00;;;;;12.83;100.00;98368.63;4937419;28;60836;-68
2023/11/03 00:06:03;;;;;;;;;0.00;0.00;;;;;12.80;100.00;98360.81;4938216;28;45544;-66
2023/11/03 00:08:30;;;;;;;;;0.00;0.00;;;;;12.80;100.00;98366.09;4938230;28;45729;-67
2023/11/03 00:10:56;;;;;;;;;0.00;0.00;;;;;12.77;100.00;98367.06;4937620;28;45285;-68
2023/11/03 00:13:22;;;;;;;;;1.00;0.00;;;;;12.82;100.00;98353.66;4938328;28;45568;-66
2023/11/03 00:15:48;;;;;;;;;0.00;0.00;;;;;12.81;100.00;98358.09;4938352;28;45640;-66
2023/11/03 00:18:13;;;;;;;;;0.00;0.00;;;;;12.86;100.00;98365.88;4937990;28;46140;-67
2023/11/03 00:20:40;;;;;;;;;2.67;0.00;;;;;12.89;100.00;98375.47;4952541;28;52128;-67
2023/11/03 00:23:07;;;;;;;;;1.00;0.00;;;;;12.90;100.00;98366.63;4941163;28;45599;-67
2023/11/03 00:25:32;;;;;;;;;0.00;0.00;;;;;12.91;100.00;98366.56;4937854;28;45452;-66
2023/11/03 00:27:58;;;;;;;;;1.67;0.00;;;;;12.86;100.00;98360.56;4938802;28;46437;-67
2023/11/03 00:30:23;;;;;;;;;0.00;0.00;;;;;12.79;100.00;98367.88;4939788;28;45300;-67
2023/11/03 00:32:48;;;;;;;;;0.67;0.00;;;;;12.75;100.00;98374.22;4942975;28;45311;-66
2023/11/03 00:35:14;;;;;;;;;0.00;0.00;;;;;12.72;100.00;98373.44;4936877;28;64810;-67
2023/11/03 00:37:40;;;;;;;;;0.00;0.00;;;;;12.68;100.00;98385.09;4937866;28;46013;-67
2023/11/03 00:40:08;;;;;;;;;0.00;0.00;;;;;12.62;100.00;98390.59;4938636;28;45533;-67
2023/11/03 00:42:34;;;;;;;;;1.00;0.00;;;;;12.56;100.00;98374.00;4936018;28;45480;-67
2023/11/03 00:44:59;;;;;;;;;0.00;0.00;;;;;12.54;100.00;98381.16;4937490;28;59702;-66
2023/11/03 00:47:24;;;;;;;;;2.67;0.00;;;;;12.52;100.00;98385.66;4936577;28;69523;-66
2023/11/03 00:49:50;;;;;;;;;2.00;1.00;;;;;12.51;100.00;98388.34;4942285;28;45488;-67
2023/11/03 00:52:15;;;;;;;;;4.00;0.00;;;;;12.52;100.00;98380.38;4937886;28;45464;-67
2023/11/03 00:54:41;;;;;;;;;3.00;0.00;;;;;12.51;100.00;98383.91;4936582;28;66931;-68
2023/11/03 00:57:06;;;;;;;;;0.33;0.33;;;;;12.49;100.00;98385.75;4936185;28;48193;-67
2023/11/03 00:59:32;;;;;;;;;0.00;0.00;;;;;12.50;100.00;98389.25;4937723;28;45324;-68
2023/11/03 01:01:58;;;;;;;;;0.67;0.00;;;;;12.48;100.00;98399.91;4940394;28;45356;-67
2023/11/03 01:04:23;;;;;;;;;0.67;0.00;;;;;12.47;100.00;98381.44;4953024;28;45512;-67
2023/11/03 01:06:49;;;;;;;;;1.67;0.00;;;;;12.49;100.00;98396.34;4935972;28;72786;-67
2023/11/03 01:09:15;;;;;;;;;0.00;0.00;;;;;12.50;100.00;98387.47;4937189;28;45476;-67
2023/11/03 01:11:40;;;;;;;;;0.00;0.00;;;;;12.49;100.00;98387.53;4936916;28;45471;-68
2023/11/03 01:14:06;;;;;;;;;1.00;0.00;;;;;12.51;100.00;98390.97;4937304;28;45431;-68
2023/11/03 01:16:33;;;;;;;;;0.00;0.00;;;;;12.49;100.00;98390.19;4935859;28;45745;-68
2023/11/03 01:19:02;;;;;;;;;0.33;0.00;;;;;12.48;100.00;98394.63;4937065;28;45396;-67
2023/11/03 01:21:28;;;;;;;;;0.00;0.00;;;;;12.49;100.00;98395.47;4936218;28;45525;-69
2023/11/03 01:23:53;;;;;;;;;0.00;0.00;;;;;12.49;100.00;98387.53;4940695;28;45665;-66
2023/11/03 01:26:19;;;;;;;;;3.00;0.00;;;;;12.49;100.00;98395.47;4935853;28;75444;-67
2023/11/03 01:28:45;;;;;;;;;1.00;0.00;;;;;12.50;100.00;98391.91;4937602;28;45620;-67
2023/11/03 01:31:11;;;;;;;;;1.00;0.00;;;;;12.50;100.00;98403.34;4936844;28;45304;-67
2023/11/03 01:33:39;;;;;;;;;1.00;0.00;;;;;12.53;100.00;98397.09;4941841;28;45238;-68
2023/11/03 01:36:04;;;;;;;;;0.00;0.00;;;;;12.51;100.00;98404.22;4937318;28;45826;-69
2023/11/03 01:38:31;;;;;;;;;1.00;0.00;;;;;12.49;100.00;98406.94;4936645;28;45446;-67
2023/11/03 01:40:57;;;;;;;;;0.00;0.00;;;;;12.52;100.00;98398.03;4936454;28;45510;-67
2023/11/03 01:43:22;;;;;;;;;0.00;0.00;;;;;12.48;100.00;98402.56;4933451;28;45266;-67
2023/11/03 01:45:48;;;;;;;;;0.00;0.00;;;;;12.44;100.00;98403.56;4937143;28;46826;-69
2023/11/03 01:48:13;;;;;;;;;0.67;0.00;;;;;12.44;100.00;98397.44;4937037;28;45878;-69
2023/11/03 01:50:40;;;;;;;;;0.33;0.33;;;;;12.43;100.00;98396.56;4937098;28;46819;-67
2023/11/03 01:53:05;;;;;;;;;1.00;0.00;;;;;12.46;100.00;98400.88;4937792;28;45359;-67
2023/11/03 01:55:31;;;;;;;;;1.00;0.00;;;;;12.43;100.00;98404.50;4935703;28;76043;-67
2023/11/03 01:57:58;;;;;;;;;2.00;0.00;;;;;12.43;100.00;98401.84;4950826;28;68175;-69
2023/11/03 02:00:23;;;;;;;;;0.67;0.00;;;;;12.42;100.00;98409.88;4951379;28;45301;-67
2023/11/03 02:02:49;;;;;;;;;0.00;0.00;;;;;12.40;100.00;98415.19;4937037;28;45273;-67
2023/11/03 02:05:15;;;;;;;;;0.00;0.00;;;;;12.38;100.00;98411.75;4951588;28;45500;-66
2023/11/03 02:07:41;;;;;;;;;2.00;0.67;;;;;12.36;100.00;98410.94;4936488;28;45316;-67
2023/11/03 02:10:07;;;;;;;;;0.00;0.00;;;;;12.33;100.00;98414.53;4951372;28;50217;-67
2023/11/03 02:12:33;;;;;;;;;2.00;0.00;;;;;12.34;100.00;98420.69;4936461;28;45542;-68
2023/11/03 02:14:58;;;;;;;;;0.00;0.00;;;;;12.32;100.00;98412.81;4936615;28;46751;-68
2023/11/03 02:17:24;;;;;;;;;0.00;0.00;;;;;12.34;100.00;98410.13;4935532;28;71872;-67
2023/11/03 02:19:49;;;;;;;;;1.00;0.00;;;;;12.35;100.00;98408.31;4951577;28;45530;-67
2023/11/03 02:22:14;;;;;;;;;0.33;0.33;;;;;12.36;100.00;98410.06;4940299;28;45475;-69
2023/11/03 02:24:40;;;;;;;;;0.00;0.00;;;;;12.32;100.00;98412.81;4939275;28;47242;-67
2023/11/03 02:27:05;;;;;;;;;2.00;0.00;;;;;12.32;100.00;98409.31;4939014;28;64309;-70
2023/11/03 02:29:31;;;;;;;;;0.00;0.00;;;;;12.32;100.00;98409.31;4940366;28;45419;-67
2023/11/03 02:31:56;;;;;;;;;0.67;0.00;;;;;12.33;100.00;98411.91;4939013;28;64499;-67
2023/11/03 02:34:21;;;;;;;;;0.00;0.00;;;;;12.34;100.00;98410.13;4938023;28;75149;-67
2023/11/03 02:36:46;;;;;;;;;3.00;0.00;;;;;12.34;100.00;98412.75;4938658;28;71979;-68
2023/11/03 02:39:12;;;;;;;;;2.00;0.00;;;;;12.30;100.00;98400.53;4939300;28;45281;-68
2023/11/03 02:41:37;;;;;;;;;1.00;0.00;;;;;12.30;100.00;98400.53;4954404;28;47720;-67
2023/11/03 02:44:03;;;;;;;;;1.00;1.00;;;;;12.29;100.00;98406.75;4938555;28;71533;-66
2023/11/03 02:46:29;;;;;;;;;0.33;0.00;;;;;12.25;100.00;98410.44;4938971;28;45549;-64
2023/11/03 02:48:54;;;;;;;;;3.00;0.00;;;;;12.21;100.00;98403.53;4939429;28;45391;-67
2023/11/03 02:51:20;;;;;;;;;1.00;0.00;;;;;12.17;100.00;98408.06;4939727;28;45573;-68
2023/11/03 02:53:45;;;;;;;;;0.00;0.00;;;;;12.16;100.00;98410.75;4939544;28;46351;-67
2023/11/03 02:56:11;;;;;;;;;0.00;0.00;;;;;12.14;100.00;98410.78;4939693;28;45371;-68
2023/11/03 02:58:37;;;;;;;;;1.00;0.00;;;;;12.13;100.00;98409.06;4952654;28;69426;-69
2023/11/03 03:01:06;;;;;;;;;0.67;0.00;;;;;12.12;100.00;98409.13;4938323;28;45627;-67
2023/11/03 03:03:32;;;;;;;;;0.33;0.33;;;;;12.12;100.00;98409.13;4938843;28;45802;-67
2023/11/03 03:05:57;;;;;;;;;0.00;0.00;;;;;12.07;100.00;98406.63;4937290;28;68119;-67
2023/11/03 03:08:22;;;;;;;;;3.33;1.00;;;;;12.10;100.00;98413.63;4938959;28;50701;-68
2023/11/03 03:10:48;;;;;;;;;0.00;0.00;;;;;12.08;100.00;98408.34;4946780;28;45400;-65
2023/11/03 03:13:13;;;;;;;;;2.00;0.00;;;;;12.10;100.00;98410.97;4936368;28;73172;-66
2023/11/03 03:15:38;;;;;;;;;0.00;0.00;;;;;12.09;100.00;98410.13;4934533;28;45346;-67
2023/11/03 03:18:04;;;;;;;;;0.00;0.00;;;;;12.09;100.00;98411.88;4937945;28;64250;-65
2023/11/03 03:20:29;;;;;;;;;1.00;0.00;;;;;12.10;100.00;98408.34;4938802;28;45768;-68
2023/11/03 03:22:55;;;;;;;;;2.00;0.00;;;;;12.08;100.00;98413.66;4939789;28;66340;-67
2023/11/03 03:25:20;;;;;;;;;2.00;0.00;;;;;12.13;100.00;98414.34;4937918;28;73634;-68
2023/11/03 03:27:45;;;;;;;;;0.00;0.00;;;;;12.13;100.00;98419.66;4936998;28;67330;-68
2023/11/03 03:30:11;;;;;;;;;0.67;0.00;;;;;12.11;100.00;98415.34;4937931;28;45485;-67
2023/11/03 03:32:37;;;;;;;;;1.00;0.00;;;;;12.09;100.00;98415.41;4937637;28;46462;-69
2023/11/03 03:35:02;;;;;;;;;1.00;0.00;;;;;12.10;100.00;98422.41;4936999;28;60817;-67
2023/11/03 03:37:28;;;;;;;;;2.33;0.00;;;;;12.10;100.00;98418.91;4938819;28;45268;-66
2023/11/03 03:39:53;;;;;;;;;0.00;0.00;;;;;12.09;100.00;98427.75;4939199;28;45261;-67
2023/11/03 03:42:19;;;;;;;;;3.00;0.00;;;;;12.07;100.00;98419.88;4938266;28;49013;-69
2023/11/03 03:44:45;;;;;;;;;0.67;0.00;;;;;12.07;100.00;98433.09;4938596;28;45320;-69
2023/11/03 03:47:10;;;;;;;;;0.00;0.00;;;;;12.07;100.00;98439.25;4937381;28;45304;-67
2023/11/03 03:49:36;;;;;;;;;3.00;1.00;;;;;12.08;100.00;98426.88;4938420;28;45316;-67
2023/11/03 03:52:02;;;;;;;;;0.00;0.00;;;;;12.10;100.00;98429.50;4953120;28;45381;-67
2023/11/03 03:54:28;;;;;;;;;0.33;0.00;;;;;12.10;100.00;98432.13;4938254;28;45155;-69
2023/11/03 03:56:53;;;;;;;;;1.67;0.00;;;;;12.13;100.00;98435.53;4938382;28;45297;-67
2023/11/03 03:59:19;;;;;;;;;0.00;0.00;;;;;12.16;100.00;98426.63;4937267;28;45353;-67
2023/11/03 04:01:45;;;;;;;;;1.67;0.00;;;;;12.14;100.00;98423.16;4952812;28;47762;-69
2023/11/03 04:04:10;;;;;;;;;1.00;1.00;;;;;12.12;100.00;98428.50;4938017;28;45495;-67
2023/11/03 04:06:36;;;;;;;;;1.67;1.00;;;;;12.13;100.00;98432.03;4938294;28;45424;-67
2023/11/03 04:09:02;;;;;;;;;1.33;0.00;;;;;12.14;100.00;98431.09;4938313;28;45341;-65
2023/11/03 04:11:27;;;;;;;;;0.00;0.00;;;;;12.09;100.00;98425.09;4938009;28;46168;-65
2023/11/03 04:13:52;;;;;;;;;0.00;0.00;;;;;12.07;100.00;98441.88;4936726;28;73428;-67
2023/11/03 04:16:18;;;;;;;;;2.00;0.33;;;;;12.08;100.00;98437.47;4938027;28;45332;-67
2023/11/03 04:18:43;;;;;;;;;1.67;0.00;;;;;12.10;100.00;98442.72;4938326;28;45572;-69
2023/11/03 04:21:09;;;;;;;;;0.00;0.00;;;;;12.05;100.00;98443.72;4937883;28;46379;-67
2023/11/03 04:23:35;;;;;;;;;1.00;0.67;;;;;12.02;100.00;98449.09;4938560;28;45567;-69
2023/11/03 04:26:00;;;;;;;;;2.00;0.00;;;;;12.02;100.00;98445.59;4937458;28;68756;-69
2023/11/03 04:28:25;;;;;;;;;0.67;0.67;;;;;12.04;100.00;98449.06;4936591;28;64063;-67
2023/11/03 04:30:50;;;;;;;;;0.00;0.00;;;;;12.00;100.00;98455.38;4936745;28;71927;-70
2023/11/03 04:33:16;;;;;;;;;0.00;0.00;;;;;11.98;100.00;98451.91;4937217;28;61789;-67
2023/11/03 04:35:42;;;;;;;;;0.67;0.00;;;;;11.98;100.00;98457.19;4937029;28;67635;-67
2023/11/03 04:38:08;;;;;;;;;1.00;0.00;;;;;11.98;100.00;98450.13;4937732;28;45407;-67
2023/11/03 04:40:34;;;;;;;;;2.00;0.00;;;;;12.01;100.00;98455.31;4937403;28;47226;-67
2023/11/03 04:42:59;;;;;;;;;3.00;1.00;;;;;12.01;100.00;98457.09;4937152;28;45286;-68
2023/11/03 04:45:26;;;;;;;;;3.33;1.00;;;;;11.98;100.00;98451.91;4936936;28;64046;-69
2023/11/03 04:47:52;;;;;;;;;0.00;0.00;;;;;12.00;100.00;98463.31;4937610;28;45555;-67
2023/11/03 04:50:17;;;;;;;;;0.67;0.00;;;;;12.00;100.00;98466.81;4952477;28;46290;-68
2023/11/03 04:52:43;;;;;;;;;0.00;0.00;;;;;11.96;100.00;98459.88;4936929;28;45459;-68
2023/11/03 04:55:08;;;;;;;;;1.00;0.00;;;;;11.97;100.00;98458.97;4936116;28;67987;-68
2023/11/03 04:57:37;;;;;;;;;1.00;1.00;;;;;11.96;100.00;98457.25;4937773;28;46424;-67
2023/11/03 05:00:08;;;;;;;;;1.33;0.33;;;;;11.97;100.00;98471.34;4936956;28;45623;-67
2023/11/03 05:02:34;;;;;;;;;0.67;0.00;;;;;11.96;100.00;98464.31;4937468;28;45583;-68
2023/11/03 05:04:59;;;;;;;;;1.00;0.00;;;;;11.98;100.00;98465.97;4936180;28;45767;-66
2023/11/03 05:07:24;;;;;;;;;0.00;0.00;;;;;11.98;100.00;98465.97;4936415;28;67531;-67
2023/11/03 05:09:51;;;;;;;;;0.00;0.00;;;;;12.00;100.00;98464.19;4936352;28;73517;-69
2023/11/03 05:12:16;;;;;;;;;4.33;0.00;;;;;11.99;100.00;98475.69;4937091;28;45479;-69
2023/11/03 05:14:42;;;;;;;;;2.00;0.00;;;;;12.00;100.00;98465.97;4936623;28;68538;-69
2023/11/03 05:17:07;;;;;;;;;2.00;0.00;;;;;11.99;100.00;98470.38;4936437;28;64216;-68
2023/11/03 05:19:35;;;;;;;;;0.00;0.00;;;;;11.99;100.00;98475.69;4942227;28;74076;-67
2023/11/03 05:22:01;;;;;;;;;0.00;0.00;;;;;11.98;100.00;98473.06;5105552;22;45371;-67
2023/11/03 05:24:26;;;;;;;;;1.00;0.33;;;;;11.97;100.00;98481.91;4993303;28;45359;-66
2023/11/03 05:26:51;;;;;;;;;0.00;0.00;;;;;11.96;100.00;98475.75;4994973;28;48271;-67
2023/11/03 05:29:22;;;;;;;;;0.33;0.00;;;;;11.93;100.00;98482.91;4992096;28;54059;-67
2023/11/03 05:31:50;;;;;;;;;1.00;1.00;;;;;11.95;100.00;98489.03;4995843;28;45630;-66
2023/11/03 05:34:15;;;;;;;;;2.33;0.00;;;;;11.98;100.00;98489.78;4987246;28;45517;-67
2023/11/03 05:36:41;;;;;;;;;1.00;1.00;;;;;11.90;100.00;98481.25;4995375;28;52354;-66
2023/11/03 05:39:08;;;;;;;;;0.00;0.00;;;;;11.92;100.00;98491.78;4994535;28;46261;-66
2023/11/03 05:41:34;;;;;;;;;0.00;0.00;;;;;11.87;100.00;98488.41;4984587;28;45445;-67
2023/11/03 05:43:59;;;;;;;;;2.00;0.00;;;;;11.89;100.00;98495.41;4970876;28;45328;-66
2023/11/03 05:46:25;;;;;;;;;2.00;1.00;;;;;11.89;100.00;98500.69;4995142;28;45516;-67
2023/11/03 05:48:52;;;;;;;;;2.00;0.00;;;;;11.87;100.00;98493.69;4995392;28;46565;-67
2023/11/03 05:51:20;;;;;;;;;4.00;0.00;;;;;11.87;100.00;98493.69;4977624;28;45388;-67
2023/11/03 05:53:46;;;;;;;;;5.00;0.00;;;;;11.85;100.00;98503.47;4977672;28;45353;-66
2023/11/03 05:56:11;;;;;;;;;0.00;0.00;;;;;11.84;100.00;98507.91;4995767;28;64273;-67
2023/11/03 05:58:36;;;;;;;;;1.00;0.00;;;;;11.77;100.00;98501.91;4992953;28;46588;-67
2023/11/03 06:01:02;;;;;;;;;0.00;0.00;;;;;11.79;100.00;98501.84;4998341;28;54100;-67
2023/11/03 06:03:27;;;;;;;;;2.00;0.00;;;;;11.79;100.00;98510.63;4977442;28;45565;-67
2023/11/03 06:05:53;;;;;;;;;4.00;1.00;;;;;11.77;100.00;98511.59;4996876;28;45455;-66
2023/11/03 06:08:18;;;;;;;;;0.00;0.00;;;;;11.78;100.00;98516.00;4997701;28;72780;-69
2023/11/03 06:10:43;;;;;;;;;7.67;1.00;;;;;11.81;100.00;98507.94;4997258;28;71873;-66
2023/11/03 06:13:08;;;;;;;;;2.33;0.00;;;;;11.79;100.00;98515.94;4998890;28;45470;-68
2023/11/03 06:15:34;;;;;;;;;0.33;0.33;;;;;11.78;100.00;98516.00;4997370;28;67879;-66
2023/11/03 06:17:59;;;;;;;;;1.33;0.00;;;;;11.79;100.00;98521.22;4996394;28;45700;-66
2023/11/03 06:20:24;;;;;;;;;3.67;0.67;;;;;11.79;100.00;98517.72;4996787;28;45434;-68
2023/11/03 06:22:50;;;;;;;;;3.00;0.00;;;;;11.78;100.00;98524.78;4995862;28;45292;-67
2023/11/03 06:25:15;;;;;;;;;0.67;0.00;;;;;11.82;100.00;98533.50;4997958;28;58460;-67
2023/11/03 06:27:40;;;;;;;;;0.67;0.00;;;;;11.80;100.00;98530.00;4996798;28;69522;-67
2023/11/03 06:30:06;;;;;;;;;3.00;0.00;;;;;11.80;100.00;98537.94;4993851;28;72249;-67
2023/11/03 06:32:32;;;;;;;;;0.67;0.00;;;;;11.85;100.00;98540.47;4991341;28;45551;-66
2023/11/03 06:34:57;;;;;;;;;0.67;0.00;;;;;11.83;100.00;98542.31;4994954;28;65054;-68
2023/11/03 06:37:22;;;;;;;;;5.00;0.00;;;;;11.80;100.00;98543.22;4986749;28;72989;-66
2023/11/03 06:39:50;;;;;;;;;7.00;0.00;;;;;11.82;100.00;98538.78;4989707;28;70452;-67
2023/11/03 06:42:17;;;;;;;;;0.00;0.00;;;;;11.77;100.00;98543.31;4996379;28;46230;-65
2023/11/03 06:44:43;;;;;;;;;2.00;0.00;;;;;11.77;100.00;98536.28;4997610;28;45260;-67
2023/11/03 06:47:08;;;;;;;;;1.00;0.00;;;;;11.76;100.00;98545.09;4996415;28;70717;-68
2023/11/03 06:49:33;;;;;;;;;0.00;0.00;;;;;11.79;100.00;98542.38;4993971;28;71281;-67
2023/11/03 06:51:58;;;;;;;;;2.67;0.00;;;;;11.80;100.00;98556.44;4996533;28;61765;-66
2023/11/03 06:54:24;;;;;;;;;3.33;0.00;;;;;11.81;100.00;98558.19;4979191;28;67056;-65
2023/11/03 06:56:50;;;;;;;;;0.00;0.00;;;;;11.79;100.00;98557.38;4995620;28;45754;-66
2023/11/03 06:59:15;;;;;;;;;1.33;0.00;;;;;11.84;100.00;98560.78;4989514;28;66353;-66
2023/11/03 07:01:40;;;;;;;;;0.00;0.00;;;;;11.77;100.00;98564.47;4992520;28;64990;-66
2023/11/03 07:04:07;;;;;;;;;1.33;0.00;;;;;11.83;100.00;98572.28;4986711;28;65962;-65
2023/11/03 07:06:33;;;;;;;;;3.00;0.00;;;;;11.83;100.00;98585.50;4978679;28;46450;-66
2023/11/03 07:08:59;;;;;;;;;2.67;1.00;;;;;11.83;100.00;98574.91;4988668;28;45519;-66
2023/11/03 07:11:24;;;;;;;;;2.00;1.00;;;;;11.85;100.00;98569.56;4993679;28;45360;-66
2023/11/03 07:13:51;;;;;;;;;2.00;1.00;;;;;11.84;100.00;98584.56;4978928;28;63152;-66
2023/11/03 07:16:17;;;;;;;;;1.00;1.00;;;;;11.86;100.00;98588.03;4997949;28;45982;-66
2023/11/03 07:18:42;;;;;;;;;0.00;0.00;;;;;11.85;100.00;98580.16;4995843;28;69008;-66
2023/11/03 07:21:12;;;;;;;;;0.67;0.00;;;;;11.84;100.00;98581.94;4979830;28;45441;-67
2023/11/03 07:23:38;;;;;;;;;0.00;0.00;;;;;11.86;100.00;98579.22;4995357;28;45499;-66
2023/11/03 07:26:03;;;;;;;;;2.67;1.00;;;;;11.88;100.00;98583.56;4993664;28;45536;-65
2023/11/03 07:28:29;;;;;;;;;2.00;0.00;;;;;11.89;100.00;98582.66;4994201;28;73725;-66
2023/11/03 07:30:55;;;;;;;;;0.00;0.00;;;;;11.92;100.00;98590.47;4996905;28;45293;-66
2023/11/03 07:33:20;;;;;;;;;0.00;0.00;;;;;11.96;100.00;98586.84;4996428;28;45503;-65
2023/11/03 07:35:46;;;;;;;;;0.67;0.00;;;;;12.05;100.00;98586.56;4996716;28;71125;-67
2023/11/03 07:38:12;;;;;;;;;2.00;0.33;;;;;12.07;100.00;98587.38;4996136;28;70020;-65
2023/11/03 07:40:37;;;;;;;;;1.00;0.67;;;;;12.13;100.00;98588.09;4996473;28;45478;-66
2023/11/03 07:43:02;;;;;;;;;4.33;1.00;;;;;12.16;100.00;98591.50;4997054;28;45410;-67
2023/11/03 07:45:28;;;;;;;;;1.00;1.00;;;;;12.17;100.00;98587.94;4996751;28;46662;-65
2023/11/03 07:47:53;;;;;;;;;2.00;0.00;;;;;12.23;100.00;98578.94;4978556;28;45795;-66
2023/11/03 07:50:18;;;;;;;;;1.00;1.00;;;;;12.30;100.00;98594.59;4978693;28;69020;-65
2023/11/03 07:52:44;;;;;;;;;0.00;0.00;;;;;12.32;100.00;98589.25;4995105;28;45566;-68
2023/11/03 07:55:15;;;;;;;;;1.00;1.00;;;;;12.36;100.00;98582.94;4993716;28;46555;-66
2023/11/03 07:57:43;;;;;;;;;0.00;0.00;;;;;12.39;100.00;98588.13;4985615;28;45516;-67
2023/11/03 08:00:12;;;;;;;;;2.33;1.00;;;;;12.45;100.00;98584.41;4992352;28;45467;-65
2023/11/03 08:02:37;;;;;;;;;1.00;1.00;;;;;12.48;100.00;98579.91;4987880;28;45560;-65
2023/11/03 08:05:06;;;;;;;;;0.67;0.67;;;;;12.53;100.00;98579.75;4990328;28;46974;-67
2023/11/03 08:07:32;;;;;;;;;3.33;1.00;;;;;12.58;100.00;98591.91;4992106;28;45532;-66
2023/11/03 08:09:57;;;;;;;;;1.33;1.00;;;;;12.63;100.00;98598.84;4987356;28;45485;-66
2023/11/03 08:12:22;;;;;;;;;0.67;0.67;;;;;12.68;100.00;98602.22;4993058;28;61883;-66
2023/11/03 08:14:47;;;;;;;;;1.00;1.00;;;;;12.72;100.00;98611.75;4994724;28;74593;-66
2023/11/03 08:17:13;;;;;;;;;2.00;0.33;;;;;12.73;100.00;98603.78;4990532;28;70554;-68
2023/11/03 08:19:38;;;;;;;;;1.00;1.00;;;;;12.80;100.00;98607.09;4973999;28;62332;-66
2023/11/03 08:22:04;;;;;;;;;1.00;1.00;;;;;12.89;100.00;98605.88;4992431;28;68123;-67
2023/11/03 08:24:30;;;;;;;;;2.00;1.00;;;;;12.94;100.00;98603.94;4995762;28;47573;-66
2023/11/03 08:26:55;;;;;;;;;5.00;0.00;;;;;12.94;100.00;98601.31;4979110;28;45480;-66
2023/11/03 08:29:21;;;;;;;;;2.00;1.00;;;;;12.98;100.00;98608.22;4994264;28;45420;-66
2023/11/03 08:31:46;;;;;;;;;1.00;1.00;;;;;13.05;100.00;98607.97;4996500;28;48255;-66
2023/11/03 08:34:13;;;;;;;;;2.67;1.67;;;;;13.08;100.00;98607.00;4996556;28;46588;-66
2023/11/03 08:36:38;;;;;;;;;3.00;1.00;;;;;13.10;100.00;98616.63;4956409;28;45423;-67
2023/11/03 08:39:06;;;;;;;;;0.67;0.67;;;;;13.09;100.00;98624.63;4962657;28;45408;-66
2023/11/03 08:41:33;;;;;;;;;2.00;2.00;;;;;13.14;100.00;98632.41;4994035;28;45328;-66
2023/11/03 08:43:58;;;;;;;;;3.00;1.33;;;;;13.15;100.00;98639.44;4988598;28;70916;-66
2023/11/03 08:46:24;;;;;;;;;3.33;1.00;;;;;13.15;100.00;98637.66;4994943;28;69930;-66
2023/11/03 08:48:49;;;;;;;;;2.67;1.00;;;;;13.14;100.00;98633.28;4993397;28;45317;-66
2023/11/03 08:51:18;;;;;;;;;2.00;2.00;;;;;13.12;100.00;98637.78;4969949;28;45542;-65
2023/11/03 08:53:44;;;;;;;;;1.00;1.00;;;;;13.11;100.00;98636.06;4995259;28;46580;-66
2023/11/03 08:56:13;;;;;;;;;1.00;1.00;;;;;13.10;100.00;98639.59;4993708;28;45390;-66
2023/11/03 08:58:41;;;;;;;;;4.00;1.00;;;;;13.05;100.00;98639.78;4978032;28;45421;-67
2023/11/03 09:01:07;;;;;;;;;0.67;0.67;;;;;13.04;100.00;98643.31;4993283;28;45541;-66
2023/11/03 09:03:32;;;;;;;;;2.00;1.00;;;;;13.08;100.00;98644.94;4987799;28;45585;-68
2023/11/03 09:05:59;;;;;;;;;3.67;1.00;;;;;13.11;100.00;98647.50;4991980;28;45448;-66
2023/11/03 09:08:24;;;;;;;;;4.00;1.00;;;;;13.11;100.00;98636.06;4994834;28;45291;-66
2023/11/03 09:10:50;;;;;;;;;3.67;2.00;;;;;13.13;100.00;98649.25;4991735;28;45466;-66
2023/11/03 09:13:16;;;;;;;;;2.00;1.00;;;;;13.12;100.00;98637.78;4995704;28;46619;-66
2023/11/03 09:15:44;;;;;;;;;1.67;1.00;;;;;13.14;100.00;98630.63;4985976;28;45418;-66
2023/11/03 09:18:10;;;;;;;;;1.00;1.00;;;;;13.19;100.00;98631.34;4967135;28;46497;-65
2023/11/03 09:20:35;;;;;;;;;0.00;0.00;;;;;13.15;100.00;98629.69;4982417;28;45440;-65
2023/11/03 09:23:00;;;;;;;;;5.00;1.00;;;;;13.13;100.00;98630.69;4975156;28;45833;-66
2023/11/03 09:25:27;;;;;;;;;0.00;0.00;;;;;13.11;100.00;98631.63;4964403;28;69752;-67
2023/11/03 09:27:52;;;;;;;;;2.00;2.00;;;;;13.10;100.00;98634.28;4976157;28;45554;-66
2023/11/03 09:30:18;;;;;;;;;3.00;2.00;;;;;13.16;100.00;98630.59;4972835;28;45443;-67
2023/11/03 09:32:47;;;;;;;;;1.67;1.67;;;;;13.18;100.00;98637.56;4971793;28;46052;-65
2023/11/03 09:35:12;;;;;;;;;1.00;1.00;;;;;13.14;100.00;98648.31;4968902;28;45521;-67
2023/11/03 09:37:38;;;;;;;;;0.67;0.67;;;;;13.14;100.00;98638.56;4973404;28;65280;-66
2023/11/03 09:40:06;;;;;;;;;1.00;1.00;;;;;13.16;100.00;98652.66;4966692;28;45642;-66
2023/11/03 09:42:32;;;;;;;;;3.00;1.00;;;;;13.14;100.00;98651.81;4970502;28;45815;-66
2023/11/03 09:44:58;;;;;;;;;1.00;1.00;;;;;13.11;100.00;98650.16;4979975;28;45493;-65
2023/11/03 09:47:27;;;;;;;;;1.00;1.00;;;;;13.04;100.00;98648.63;4972590;28;45225;-65
2023/11/03 09:49:58;;;;;;;;;4.00;1.00;;;;;13.00;100.00;98652.31;4966644;28;57012;-67
2023/11/03 09:52:24;;;;;;;;;1.67;1.00;;;;;12.99;100.00;98658.50;4977154;28;46594;-65
2023/11/03 09:54:50;;;;;;;;;2.00;0.67;;;;;12.99;100.00;98669.09;4973702;28;45736;-68
2023/11/03 09:57:16;;;;;;;;;0.33;0.33;;;;;13.02;100.00;98661.06;4992605;28;45387;-66
2023/11/03 09:59:41;;;;;;;;;2.67;1.00;;;;;12.98;100.00;98669.16;4976608;28;45386;-65
2023/11/03 10:02:19;;;;;;;;;1.33;1.00;;;;;12.94;100.00;98678.97;4966581;28;46556;-66
2023/11/03 10:04:45;;;;;;;;;0.33;0.33;;;;;12.92;100.00;98674.66;4967300;28;45514;-66
2023/11/03 10:07:11;;;;;;;;;1.67;0.67;;;;;12.93;100.00;98676.38;4975356;28;45502;-66
2023/11/03 10:09:40;;;;;;;;;2.33;1.00;;;;;13.00;100.00;98684.09;4977177;28;45264;-66
2023/11/03 10:12:10;;;;;;;;;1.00;1.00;;;;;13.07;100.00;98679.47;4970917;28;46486;-66
2023/11/03 10:14:35;;;;;;;;;2.33;0.00;;;;;13.10;100.00;98677.56;4970976;28;45371;-66
2023/11/03 10:17:00;;;;;;;;;1.33;1.00;;;;;13.15;100.00;98682.69;4970755;28;45466;-66
2023/11/03 10:19:27;;;;;;;;;0.67;0.67;;;;;13.19;100.00;98683.47;4977541;28;65296;-66
2023/11/03 10:21:54;;;;;;;;;1.00;1.00;;;;;13.22;100.00;98678.09;4977256;28;46590;-65
2023/11/03 10:24:21;;;;;;;;;3.67;1.00;;;;;13.30;100.00;98673.41;4978105;28;45509;-66
2023/11/03 10:26:46;;;;;;;;;0.67;0.67;;;;;13.34;100.00;98685.63;4977679;28;45405;-66
2023/11/03 10:29:12;;;;;;;;;0.00;0.00;;;;;13.41;100.00;98673.03;4977073;28;67405;-67
2023/11/03 10:31:38;;;;;;;;;2.33;1.00;;;;;13.42;100.00;98672.09;4969903;28;45857;-65
2023/11/03 10:34:03;;;;;;;;;0.67;0.67;;;;;13.43;100.00;98681.81;4991469;28;46442;-66
2023/11/03 10:36:30;;;;;;;;;0.00;0.00;;;;;13.48;100.00;98685.16;4975995;28;45440;-65
2023/11/03 10:38:57;;;;;;;;;1.33;0.00;;;;;13.41;100.00;98673.88;4992388;28;67486;-65
2023/11/03 10:41:22;;;;;;;;;1.00;1.00;;;;;13.40;100.00;98677.47;4969700;28;45948;-68
2023/11/03 10:43:58;;;;;;;;;1.67;1.67;;;;;13.38;100.00;98665.19;4972530;28;46405;-66
2023/11/03 10:46:53;;;;;;;;;1.33;1.33;;;;;13.34;100.00;98670.59;4976783;28;45472;-65
2023/11/03 10:49:30;;;;;;;;;1.33;1.33;;;;;13.35;100.00;98682.06;4972592;28;45478;-66
2023/11/03 10:52:11;;;;;;;;;1.00;1.00;;;;;13.43;100.00;98681.81;4972044;28;45783;-67
2023/11/03 10:54:45;;;;;;;;;3.33;1.00;;;;;13.51;100.00;98670.00;4976219;28;45695;-65
2023/11/03 10:57:11;;;;;;;;;3.00;1.67;;;;;13.63;100.00;98680.19;4976807;28;45518;-66
2023/11/03 10:59:39;;;;;;;;;1.33;1.00;;;;;13.74;100.00;98685.09;4987118;28;45455;-68
2023/11/03 11:02:08;;;;;;;;;2.67;1.00;;;;;13.86;100.00;98678.47;4987826;28;48820;-67
2023/11/03 11:04:52;;;;;;;;;2.00;1.00;;;;;14.00;100.00;98668.19;4966013;28;45399;-68
2023/11/03 11:07:19;;;;;;;;;1.33;1.00;;;;;14.18;100.00;98666.66;4989994;28;45501;-67
2023/11/03 11:09:45;;;;;;;;;1.00;1.00;;;;;14.32;100.00;98664.31;4986956;28;45934;-66
2023/11/03 11:12:13;;;;;;;;;0.33;0.33;;;;;14.39;100.00;98659.63;4968880;28;45797;-66
2023/11/03 11:14:39;;;;;;;;;0.00;0.00;;;;;14.49;100.00;98661.03;4965381;28;45492;-68
2023/11/03 11:17:34;;;;;;;;;2.00;1.00;;;;;14.64;100.00;98664.84;4964441;28;45546;-67
2023/11/03 11:20:03;;;;;;;;;2.67;1.00;;;;;14.71;100.00;98653.06;4971385;28;45403;-67